createdAt,value
2018-11-05T00:01:34.640Z,11.63
2018-11-05T00:04:03.343Z,11.62
2018-11-05T00:06:32.001Z,11.61
2018-11-05T00:09:00.687Z,11.60
2018-11-05T00:11:29.345Z,11.60
2018-11-05T00:13:57.982Z,11.60
2018-11-05T00:16:26.657Z,11.60
2018-11-05T00:18:55.358Z,11.59
2018-11-05T00:21:24.031Z,11.57
2018-11-05T00:23:52.700Z,11.57
2018-11-05T00:26:21.374Z,11.57
2018-11-05T00:28:50.049Z,11.55
2018-11-05T00:31:18.751Z,11.55
2018-11-05T00:33:47.422Z,11.55
2018-11-05T00:36:16.118Z,11.54
2018-11-05T00:38:44.791Z,11.54
2018-11-05T00:41:13.478Z,11.53
2018-11-05T00:43:42.146Z,11.54
2018-11-05T00:46:10.828Z,11.54
2018-11-05T00:48:39.476Z,11.54
2018-11-05T00:51:08.153Z,11.55
2018-11-05T00:53:36.840Z,11.54
2018-11-05T00:56:05.588Z,11.54
2018-11-05T00:58:34.419Z,11.54
2018-11-05T01:01:03.207Z,11.54
2018-11-05T01:03:31.900Z,11.55
2018-11-05T01:06:00.553Z,11.54
2018-11-05T01:08:29.228Z,11.55
2018-11-05T01:10:57.905Z,11.54
2018-11-05T01:13:26.624Z,11.53
2018-11-05T01:15:55.296Z,11.53
2018-11-05T01:18:24.023Z,11.52
2018-11-05T01:20:52.772Z,11.51
2018-11-05T01:23:21.456Z,11.49
2018-11-05T01:25:50.132Z,11.48
2018-11-05T01:28:18.837Z,11.47
2018-11-05T01:30:47.517Z,11.46
2018-11-05T01:33:16.181Z,11.45
2018-11-05T01:35:44.853Z,11.46
2018-11-05T01:38:13.515Z,11.45
2018-11-05T01:40:42.200Z,11.44
2018-11-05T01:43:10.920Z,11.44
2018-11-05T01:45:39.606Z,11.42
2018-11-05T01:48:08.293Z,11.43
2018-11-05T01:50:37.005Z,11.42
2018-11-05T01:53:05.994Z,11.41
2018-11-05T01:55:34.653Z,11.39
2018-11-05T01:58:03.503Z,11.38
2018-11-05T02:00:32.206Z,11.37
2018-11-05T02:03:00.879Z,11.36
2018-11-05T02:05:29.587Z,11.36
2018-11-05T02:07:58.318Z,11.33
2018-11-05T02:10:27.142Z,11.36
2018-11-05T02:12:55.727Z,11.35
2018-11-05T02:15:24.380Z,11.35
2018-11-05T02:17:53.064Z,11.34
2018-11-05T02:20:21.778Z,11.33
2018-11-05T02:22:50.437Z,11.33
2018-11-05T02:25:19.135Z,11.31
2018-11-05T02:27:47.832Z,11.31
2018-11-05T02:30:18.350Z,11.29
2018-11-05T02:32:47.457Z,11.29
2018-11-05T02:35:16.981Z,11.28
2018-11-05T02:37:46.387Z,11.28
2018-11-05T02:40:16.316Z,11.27
2018-11-05T02:42:45.468Z,11.27
2018-11-05T02:45:15.168Z,11.26
2018-11-05T02:47:43.874Z,11.26
2018-11-05T02:50:13.429Z,11.25
2018-11-05T02:52:43.032Z,11.24
2018-11-05T02:55:11.736Z,11.24
2018-11-05T02:57:40.426Z,11.23
2018-11-05T03:00:11.454Z,11.22
2018-11-05T03:02:40.176Z,11.20
2018-11-05T03:05:11.051Z,11.19
2018-11-05T03:07:39.723Z,11.18
2018-11-05T03:10:09.455Z,11.16
2018-11-05T03:12:38.194Z,11.15
2018-11-05T03:15:08.205Z,11.14
2018-11-05T03:17:36.965Z,11.13
2018-11-05T03:20:06.495Z,11.12
2018-11-05T03:22:35.186Z,11.11
2018-11-05T03:25:04.058Z,11.11
2018-11-05T03:27:32.741Z,11.10
2018-11-05T03:30:01.429Z,11.11
2018-11-05T03:32:30.133Z,11.11
2018-11-05T03:34:58.836Z,11.10
2018-11-05T03:37:27.553Z,11.11
2018-11-05T03:39:56.230Z,11.11
2018-11-05T03:42:24.916Z,11.11
2018-11-05T03:44:53.598Z,11.10
2018-11-05T03:47:22.290Z,11.10
2018-11-05T03:49:50.978Z,11.10
2018-11-05T03:52:19.683Z,11.10
2018-11-05T03:54:48.366Z,11.11
2018-11-05T03:57:17.072Z,11.11
2018-11-05T03:59:45.757Z,11.10
2018-11-05T04:02:14.462Z,11.11
2018-11-05T04:04:43.298Z,11.11
2018-11-05T04:07:12.068Z,11.11
2018-11-05T04:09:40.732Z,11.11
2018-11-05T04:12:09.586Z,11.11
2018-11-05T04:14:38.260Z,11.12
2018-11-05T04:17:07.220Z,11.12
2018-11-05T04:19:35.903Z,11.12
2018-11-05T04:22:04.608Z,11.09
2018-11-05T04:24:33.279Z,11.11
2018-11-05T04:27:01.959Z,11.10
2018-11-05T04:29:30.630Z,11.11
2018-11-05T04:31:59.313Z,11.10
2018-11-05T04:34:27.985Z,11.10
2018-11-05T04:36:56.674Z,11.08
2018-11-05T04:39:25.360Z,11.07
2018-11-05T04:41:54.039Z,11.08
2018-11-05T04:44:22.708Z,11.06
2018-11-05T04:46:51.395Z,11.06
2018-11-05T04:49:20.054Z,11.05
2018-11-05T04:51:48.726Z,11.05
2018-11-05T04:54:17.429Z,11.04
2018-11-05T04:56:46.132Z,11.03
2018-11-05T04:59:14.809Z,11.02
2018-11-05T05:01:43.477Z,11.02
2018-11-05T05:04:12.140Z,11.00
2018-11-05T05:06:40.808Z,10.99
2018-11-05T05:09:11.177Z,10.98
2018-11-05T05:11:39.901Z,10.97
2018-11-05T05:14:08.576Z,10.99
2018-11-05T05:16:37.764Z,10.97
2018-11-05T05:19:06.453Z,10.97
2018-11-05T05:21:35.136Z,10.96
2018-11-05T05:24:03.902Z,10.95
2018-11-05T05:26:32.559Z,10.94
2018-11-05T05:29:01.197Z,10.93
2018-11-05T05:31:29.868Z,10.91
2018-11-05T05:33:58.609Z,10.89
2018-11-05T05:36:27.317Z,10.88
2018-11-05T05:38:55.999Z,10.85
2018-11-05T05:41:24.771Z,10.83
2018-11-05T05:43:53.341Z,10.82
2018-11-05T05:46:22.025Z,10.80
2018-11-05T05:48:50.700Z,10.79
2018-11-05T05:51:19.387Z,10.77
2018-11-05T05:53:48.046Z,10.76
2018-11-05T05:56:16.695Z,10.75
2018-11-05T05:58:45.388Z,10.73
2018-11-05T06:01:14.050Z,10.73
2018-11-05T06:03:42.711Z,10.74
2018-11-05T06:06:11.488Z,10.73
2018-11-05T06:08:40.063Z,10.72
2018-11-05T06:11:08.770Z,10.72
2018-11-05T06:13:37.436Z,10.71
2018-11-05T06:16:06.132Z,10.70
2018-11-05T06:18:34.796Z,10.68
2018-11-05T06:21:03.468Z,10.67
2018-11-05T06:23:32.134Z,10.66
2018-11-05T06:26:00.797Z,10.64
2018-11-05T06:28:29.591Z,10.63
2018-11-05T06:30:58.174Z,10.60
2018-11-05T06:33:26.847Z,10.58
2018-11-05T06:35:55.521Z,10.57
2018-11-05T06:38:24.252Z,10.56
2018-11-05T06:40:52.948Z,10.56
2018-11-05T06:43:21.611Z,10.56
2018-11-05T06:45:50.297Z,10.56
2018-11-05T06:48:18.977Z,10.55
2018-11-05T06:50:47.672Z,10.56
2018-11-05T06:53:16.361Z,10.56
2018-11-05T06:55:45.020Z,10.55
2018-11-05T06:58:13.663Z,10.54
2018-11-05T07:00:42.308Z,10.54
2018-11-05T07:03:10.975Z,10.54
2018-11-05T07:05:39.665Z,10.53
2018-11-05T07:08:08.311Z,10.54
2018-11-05T07:10:36.973Z,10.54
2018-11-05T07:13:05.669Z,10.53
2018-11-05T07:15:34.333Z,10.54
2018-11-05T07:18:03.003Z,10.53
2018-11-05T07:20:31.661Z,10.54
2018-11-05T07:23:00.340Z,10.54
2018-11-05T07:25:29.002Z,10.56
2018-11-05T07:27:57.675Z,10.56
2018-11-05T07:30:26.374Z,10.57
2018-11-05T07:32:55.873Z,10.58
2018-11-05T07:35:24.620Z,10.59
2018-11-05T07:37:53.369Z,10.60
2018-11-05T07:40:22.063Z,10.61
2018-11-05T07:42:50.799Z,10.63
2018-11-05T07:45:22.751Z,10.65
2018-11-05T07:47:51.560Z,10.66
2018-11-05T07:50:21.265Z,10.67
2018-11-05T07:52:50.240Z,10.70
2018-11-05T07:55:19.463Z,10.71
2018-11-05T07:57:48.950Z,10.71
2018-11-05T08:00:22.725Z,10.72
2018-11-05T08:02:53.175Z,10.73
2018-11-05T08:05:22.615Z,10.75
2018-11-05T08:07:51.481Z,10.76
2018-11-05T08:10:20.224Z,10.76
2018-11-05T08:12:49.007Z,10.79
2018-11-05T08:15:20.856Z,10.81
2018-11-05T08:17:50.446Z,10.84
2018-11-05T08:20:19.156Z,10.85
2018-11-05T08:22:47.885Z,10.87
2018-11-05T08:25:17.150Z,10.89
2018-11-05T08:27:45.836Z,10.91
2018-11-05T08:30:16.974Z,10.94
2018-11-05T08:32:45.663Z,10.96
2018-11-05T08:35:14.706Z,10.99
2018-11-05T08:37:44.247Z,11.00
2018-11-05T08:40:15.325Z,11.02
2018-11-05T08:42:45.077Z,11.04
2018-11-05T08:45:15.196Z,11.06
2018-11-05T08:47:43.921Z,11.08
2018-11-05T08:50:14.087Z,11.08
2018-11-05T08:52:42.756Z,11.12
2018-11-05T08:55:13.717Z,11.14
2018-11-05T08:57:42.871Z,11.17
2018-11-05T09:00:16.561Z,11.20
2018-11-05T09:02:46.171Z,11.24
2018-11-05T09:05:15.364Z,11.29
2018-11-05T09:07:44.884Z,11.34
2018-11-05T09:10:13.860Z,11.38
2018-11-05T09:12:42.708Z,11.43
2018-11-05T09:15:13.205Z,11.49
2018-11-05T09:17:42.750Z,11.54
2018-11-05T09:20:12.701Z,11.60
2018-11-05T09:22:41.522Z,11.63
2018-11-05T09:25:11.264Z,11.66
2018-11-05T09:27:40.010Z,11.69
2018-11-05T09:30:12.065Z,11.72
2018-11-05T09:32:40.765Z,11.76
2018-11-05T09:35:09.741Z,11.78
2018-11-05T09:37:38.448Z,11.82
2018-11-05T09:40:09.246Z,11.84
2018-11-05T09:42:38.344Z,11.88
2018-11-05T09:45:09.408Z,11.90
2018-11-05T09:47:38.065Z,11.92
2018-11-05T09:50:07.744Z,11.95
2018-11-05T09:52:36.501Z,11.98
2018-11-05T09:55:05.498Z,12.01
2018-11-05T09:57:34.200Z,12.05
2018-11-05T10:00:03.187Z,12.09
2018-11-05T10:02:36.923Z,12.13
2018-11-05T10:05:06.202Z,12.17
2018-11-05T10:07:34.634Z,12.21
2018-11-05T10:10:03.392Z,12.25
2018-11-05T10:12:32.097Z,12.28
2018-11-05T10:15:00.775Z,12.31
2018-11-05T10:17:29.461Z,12.31
2018-11-05T10:19:58.140Z,12.34
2018-11-05T10:22:26.811Z,12.36
2018-11-05T10:24:55.783Z,12.37
2018-11-05T10:27:24.684Z,12.40
2018-11-05T10:29:53.383Z,12.42
2018-11-05T10:32:22.056Z,12.45
2018-11-05T10:34:50.732Z,12.49
2018-11-05T10:37:19.418Z,12.52
2018-11-05T10:39:48.090Z,12.57
2018-11-05T10:42:16.804Z,12.61
2018-11-05T10:44:45.502Z,12.67
2018-11-05T10:47:14.208Z,12.72
2018-11-05T10:49:42.923Z,12.75
2018-11-05T10:52:11.722Z,12.80
2018-11-05T10:54:40.359Z,12.83
2018-11-05T10:57:09.122Z,12.84
2018-11-05T10:59:37.843Z,12.87
2018-11-05T11:02:11.811Z,12.90
2018-11-05T11:04:40.561Z,12.93
2018-11-05T11:07:09.277Z,12.94
2018-11-05T11:09:38.080Z,12.91
2018-11-05T11:12:07.026Z,12.96
2018-11-05T11:14:35.719Z,12.99
2018-11-05T11:17:04.525Z,13.01
2018-11-05T11:19:33.265Z,13.04
2018-11-05T11:22:02.112Z,13.05
2018-11-05T11:24:30.693Z,13.07
2018-11-05T11:27:00.251Z,13.09
2018-11-05T11:29:29.082Z,13.12
2018-11-05T11:31:57.668Z,13.15
2018-11-05T11:34:26.344Z,13.17
2018-11-05T11:36:55.148Z,13.18
2018-11-05T11:39:23.836Z,13.21
2018-11-05T11:41:52.566Z,13.22
2018-11-05T11:44:21.464Z,13.22
2018-11-05T11:46:50.038Z,13.22
2018-11-05T11:49:18.728Z,13.23
2018-11-05T11:51:47.456Z,13.22
2018-11-05T11:54:16.181Z,13.23
2018-11-05T11:56:44.836Z,13.23
2018-11-05T11:59:13.568Z,13.25
2018-11-05T12:01:47.448Z,13.29
2018-11-05T12:04:16.192Z,13.32
2018-11-05T12:06:45.173Z,13.33
2018-11-05T12:09:13.856Z,13.36
2018-11-05T12:11:42.582Z,13.39
2018-11-05T12:14:11.287Z,13.43
2018-11-05T12:16:40.017Z,13.47
2018-11-05T12:19:08.818Z,13.51
2018-11-05T12:21:37.546Z,13.54
2018-11-05T12:24:06.640Z,13.58
2018-11-05T12:26:35.523Z,13.61
2018-11-05T12:29:04.349Z,13.64
2018-11-05T12:31:33.089Z,13.65
2018-11-05T12:34:01.838Z,13.68
2018-11-05T12:36:30.556Z,13.69
2018-11-05T12:38:59.265Z,13.73
2018-11-05T12:41:27.997Z,13.77
2018-11-05T12:43:56.687Z,13.80
2018-11-05T12:46:25.455Z,13.83
2018-11-05T12:48:54.203Z,13.85
2018-11-05T12:51:22.933Z,13.86
2018-11-05T12:53:51.633Z,13.85
2018-11-05T12:56:20.403Z,13.85
2018-11-05T12:58:49.132Z,13.83
2018-11-05T13:01:17.843Z,13.77
2018-11-05T13:03:46.570Z,13.78
2018-11-05T13:06:15.284Z,13.77
2018-11-05T13:08:44.015Z,13.76
2018-11-05T13:11:12.733Z,13.74
2018-11-05T13:13:41.462Z,13.72
2018-11-05T13:16:10.241Z,13.71
2018-11-05T13:18:38.968Z,13.69
2018-11-05T13:21:07.668Z,13.75
2018-11-05T13:23:38.606Z,13.74
2018-11-05T13:26:07.366Z,13.77
2018-11-05T13:28:36.184Z,13.77
2018-11-05T13:31:04.855Z,13.78
2018-11-05T13:33:33.582Z,13.78
2018-11-05T13:36:02.306Z,13.78
2018-11-05T13:38:31.099Z,13.78
2018-11-05T13:40:59.771Z,13.79
2018-11-05T13:43:28.512Z,13.78
2018-11-05T13:45:57.319Z,13.78
2018-11-05T13:48:26.281Z,13.78
2018-11-05T13:50:54.748Z,13.78
2018-11-05T13:53:23.432Z,13.74
2018-11-05T13:55:52.127Z,13.78
2018-11-05T13:58:20.898Z,13.78
2018-11-05T14:00:49.552Z,13.76
2018-11-05T14:03:18.271Z,13.75
2018-11-05T14:05:47.062Z,13.72
2018-11-05T14:08:15.726Z,13.72
2018-11-05T14:10:44.462Z,13.70
2018-11-05T14:13:13.249Z,13.68
2018-11-05T14:15:41.994Z,13.68
2018-11-05T14:18:10.845Z,13.67
2018-11-05T14:20:39.569Z,13.67
2018-11-05T14:23:08.411Z,13.66
2018-11-05T14:25:37.227Z,13.67
2018-11-05T14:28:06.499Z,13.70
2018-11-05T14:30:34.857Z,13.68
2018-11-05T14:33:03.611Z,13.73
2018-11-05T14:35:32.328Z,13.73
2018-11-05T14:38:01.114Z,13.73
2018-11-05T14:40:29.864Z,13.74
2018-11-05T14:42:58.675Z,13.76
2018-11-05T14:45:27.354Z,13.77
2018-11-05T14:47:56.057Z,13.81
2018-11-05T14:50:24.804Z,13.83
2018-11-05T14:52:53.461Z,13.87
2018-11-05T14:55:22.206Z,13.88
2018-11-05T14:57:51.718Z,13.93
2018-11-05T15:00:21.818Z,13.96
2018-11-05T15:02:50.808Z,13.98
2018-11-05T15:05:19.587Z,14.00
2018-11-05T15:07:49.069Z,14.01
2018-11-05T15:10:19.189Z,14.07
2018-11-05T15:12:48.014Z,14.12
2018-11-05T15:15:17.297Z,14.15
2018-11-05T15:17:46.505Z,14.21
2018-11-05T15:20:16.730Z,14.28
2018-11-05T15:22:45.261Z,14.27
2018-11-05T15:25:14.409Z,14.39
2018-11-05T15:27:43.100Z,14.53
2018-11-05T15:30:13.939Z,14.65
2018-11-05T15:32:42.953Z,14.73
2018-11-05T15:35:11.799Z,14.80
2018-11-05T15:37:41.383Z,14.83
2018-11-05T15:40:11.672Z,14.90
2018-11-05T15:42:40.653Z,14.99
2018-11-05T15:45:11.070Z,15.03
2018-11-05T15:47:40.240Z,15.03
2018-11-05T15:50:11.037Z,14.92
2018-11-05T15:52:40.323Z,14.83
2018-11-05T15:55:08.691Z,14.75
2018-11-05T15:57:38.173Z,14.70
2018-11-05T16:00:16.456Z,14.63
2018-11-05T16:02:46.264Z,14.57
2018-11-05T16:05:14.976Z,14.49
2018-11-05T16:07:43.791Z,14.41
2018-11-05T16:10:12.508Z,14.33
2018-11-05T16:12:41.192Z,14.24
2018-11-05T16:15:10.480Z,14.17
2018-11-05T16:17:39.458Z,14.09
2018-11-05T16:20:10.578Z,14.02
2018-11-05T16:22:39.383Z,13.95
2018-11-05T16:25:08.129Z,13.87
2018-11-05T16:27:36.955Z,13.81
2018-11-05T16:30:07.424Z,13.75
2018-11-05T16:32:36.141Z,13.69
2018-11-05T16:35:05.251Z,13.62
2018-11-05T16:37:33.858Z,13.56
2018-11-05T16:40:02.660Z,13.50
2018-11-05T16:42:31.337Z,13.46
2018-11-05T16:45:00.106Z,13.41
2018-11-05T16:47:28.830Z,13.34
2018-11-05T16:49:57.548Z,13.32
2018-11-05T16:52:26.275Z,13.28
2018-11-05T16:54:54.959Z,13.23
2018-11-05T16:57:23.742Z,13.20
2018-11-05T16:59:52.416Z,13.15
2018-11-05T17:02:21.569Z,13.13
2018-11-05T17:04:49.919Z,13.11
2018-11-05T17:07:18.654Z,13.08
2018-11-05T17:09:47.364Z,13.05
2018-11-05T17:12:16.080Z,13.03
2018-11-05T17:14:44.830Z,13.01
2018-11-05T17:17:13.543Z,12.99
2018-11-05T17:19:42.259Z,12.97
2018-11-05T17:22:11.055Z,12.93
2018-11-05T17:24:39.781Z,12.92
2018-11-05T17:27:08.491Z,12.88
2018-11-05T17:29:37.203Z,12.86
2018-11-05T17:32:06.170Z,12.84
2018-11-05T17:34:34.889Z,12.83
2018-11-05T17:37:03.603Z,12.79
2018-11-05T17:39:32.346Z,12.79
2018-11-05T17:42:01.039Z,12.78
2018-11-05T17:44:29.731Z,12.76
2018-11-05T17:46:58.453Z,12.69
2018-11-05T17:49:27.175Z,12.72
2018-11-05T17:51:55.886Z,12.70
2018-11-05T17:54:24.616Z,12.66
2018-11-05T17:56:53.355Z,12.64
2018-11-05T17:59:22.043Z,12.62
2018-11-05T18:01:50.723Z,12.61
2018-11-05T18:04:19.522Z,12.61
2018-11-05T18:06:48.293Z,12.62
2018-11-05T18:09:17.066Z,12.65
2018-11-05T18:11:45.725Z,12.65
2018-11-05T18:14:14.492Z,12.66
2018-11-05T18:16:43.234Z,12.66
2018-11-05T18:19:12.444Z,12.67
2018-11-05T18:21:41.129Z,12.67
2018-11-05T18:24:09.902Z,12.66
2018-11-05T18:26:38.574Z,12.66
2018-11-05T18:29:07.288Z,12.63
2018-11-05T18:31:36.047Z,12.65
2018-11-05T18:34:04.875Z,12.64
2018-11-05T18:36:33.620Z,12.64
2018-11-05T18:39:02.396Z,12.62
2018-11-05T18:41:31.185Z,12.58
2018-11-05T18:43:59.903Z,12.59
2018-11-05T18:46:28.777Z,12.58
2018-11-05T18:48:57.492Z,12.57
2018-11-05T18:51:26.218Z,12.55
2018-11-05T18:53:54.947Z,12.54
2018-11-05T18:56:23.788Z,12.53
2018-11-05T18:58:52.539Z,12.52
2018-11-05T19:01:21.276Z,12.51
2018-11-05T19:03:50.086Z,12.49
2018-11-05T19:06:18.751Z,12.47
2018-11-05T19:08:47.533Z,12.45
2018-11-05T19:11:16.271Z,12.42
2018-11-05T19:13:45.037Z,12.40
2018-11-05T19:16:13.772Z,12.37
2018-11-05T19:18:42.540Z,12.37
2018-11-05T19:21:11.284Z,12.31
2018-11-05T19:23:40.080Z,12.33
2018-11-05T19:26:08.740Z,12.32
2018-11-05T19:28:37.565Z,12.30
2018-11-05T19:31:06.352Z,12.28
2018-11-05T19:33:35.161Z,12.27
2018-11-05T19:36:04.959Z,12.26
2018-11-05T19:38:33.614Z,12.24
2018-11-05T19:41:02.314Z,12.24
2018-11-05T19:43:30.999Z,12.23
2018-11-05T19:45:59.694Z,12.23
2018-11-05T19:48:28.405Z,12.22
2018-11-05T19:50:57.140Z,12.22
2018-11-05T19:53:25.866Z,12.20
2018-11-05T19:55:54.564Z,12.18
2018-11-05T19:58:23.310Z,12.16
2018-11-05T20:00:52.184Z,12.13
2018-11-05T20:03:20.862Z,12.11
2018-11-05T20:05:49.574Z,12.08
2018-11-05T20:08:18.293Z,12.06
2018-11-05T20:10:47.026Z,12.04
2018-11-05T20:13:15.757Z,12.01
2018-11-05T20:15:44.794Z,11.99
2018-11-05T20:18:13.387Z,11.97
2018-11-05T20:20:42.752Z,11.91
2018-11-05T20:23:11.426Z,11.90
2018-11-05T20:25:41.200Z,11.88
2018-11-05T20:28:11.177Z,11.85
2018-11-05T20:30:40.478Z,11.84
2018-11-05T20:33:09.459Z,11.82
2018-11-05T20:35:38.577Z,11.80
2018-11-05T20:38:07.422Z,11.78
2018-11-05T20:40:36.347Z,11.75
2018-11-05T20:43:05.891Z,11.73
2018-11-05T20:45:34.597Z,11.72
2018-11-05T20:48:04.193Z,11.72
2018-11-05T20:50:33.049Z,11.72
2018-11-05T20:53:01.966Z,11.71
2018-11-05T20:55:30.867Z,11.73
2018-11-05T20:57:59.668Z,11.74
2018-11-05T21:00:28.396Z,11.75
2018-11-05T21:02:58.392Z,11.76
2018-11-05T21:05:28.069Z,11.77
2018-11-05T21:07:56.777Z,11.79
2018-11-05T21:10:25.464Z,11.80
2018-11-05T21:12:54.196Z,11.82
2018-11-05T21:15:23.401Z,11.83
2018-11-05T21:17:53.337Z,11.84
2018-11-05T21:20:22.228Z,11.86
2018-11-05T21:22:52.464Z,11.86
2018-11-05T21:25:21.284Z,11.86
2018-11-05T21:27:49.986Z,11.87
2018-11-05T21:30:19.974Z,11.89
2018-11-05T21:32:48.807Z,11.87
2018-11-05T21:35:19.601Z,11.88
2018-11-05T21:37:48.553Z,11.88
2018-11-05T21:40:18.371Z,11.89
2018-11-05T21:42:47.269Z,11.89
2018-11-05T21:45:16.620Z,11.89
2018-11-05T21:47:46.110Z,11.89
2018-11-05T21:50:16.331Z,11.90
2018-11-05T21:52:46.318Z,11.90
2018-11-05T21:55:15.501Z,11.90
2018-11-05T21:57:45.570Z,11.90
2018-11-05T22:00:17.613Z,11.91
2018-11-05T22:02:52.246Z,11.90
2018-11-05T22:05:20.945Z,11.92
2018-11-05T22:07:49.864Z,11.92
2018-11-05T22:10:18.655Z,11.92
2018-11-05T22:12:47.764Z,11.93
2018-11-05T22:15:16.485Z,11.93
2018-11-05T22:17:45.196Z,11.93
2018-11-05T22:20:13.972Z,11.91
2018-11-05T22:22:42.826Z,11.91
2018-11-05T22:25:11.861Z,11.90
2018-11-05T22:27:40.681Z,11.89
2018-11-05T22:30:10.707Z,11.90
2018-11-05T22:32:39.432Z,11.89
2018-11-05T22:35:08.277Z,11.89
2018-11-05T22:37:37.279Z,11.89
2018-11-05T22:40:08.003Z,11.89
2018-11-05T22:42:36.687Z,11.90
2018-11-05T22:45:05.511Z,11.89
2018-11-05T22:47:34.201Z,11.89
2018-11-05T22:50:02.915Z,11.87
2018-11-05T22:52:31.607Z,11.86
2018-11-05T22:55:00.293Z,11.87
2018-11-05T22:57:29.040Z,11.84
2018-11-05T22:59:57.797Z,11.82
2018-11-05T23:02:26.544Z,11.81
2018-11-05T23:04:55.266Z,11.80
2018-11-05T23:07:23.963Z,11.78
2018-11-05T23:09:52.642Z,11.76
2018-11-05T23:12:21.332Z,11.73
2018-11-05T23:14:50.070Z,11.70
2018-11-05T23:17:18.806Z,11.66
2018-11-05T23:19:47.701Z,11.64
2018-11-05T23:22:16.382Z,11.62
2018-11-05T23:24:45.084Z,11.60
2018-11-05T23:27:13.778Z,11.58
2018-11-05T23:29:42.497Z,11.56
2018-11-05T23:32:11.208Z,11.57
2018-11-05T23:34:39.907Z,11.57
2018-11-05T23:37:08.619Z,11.59
2018-11-05T23:39:37.292Z,11.61
2018-11-05T23:42:06.004Z,11.63
2018-11-05T23:44:34.710Z,11.65
2018-11-05T23:47:03.436Z,11.67
2018-11-05T23:49:32.167Z,11.68
2018-11-05T23:52:00.947Z,11.70
2018-11-05T23:54:29.622Z,11.72
2018-11-05T23:56:58.349Z,11.75
2018-11-05T23:59:27.051Z,11.77
